Time,TemperatureF,DewpointF,PressureIn,WindDirection,WindDirectionDegrees,WindSpeedMPH,WindSpeedGustMPH,Humidity,HourlyPrecipIn,Conditions,Clouds,dailyrainin,SoftwareType,DateUTC
2013-01-10 00:00:00,48.3,46.9,30.01,NW,323,0.0,0.0,95,0.00,,CLR,0.00,VWS V14.01,2013-01-10 06:00:00,
2013-01-10 00:02:00,47.8,46.4,30.01,NW,323,0.0,0.0,95,0.00,,,0.00,VWS V14.01,2013-01-10 06:02:00,
2013-01-10 00:07:00,47.7,46.3,30.01,NW,323,0.0,0.0,95,0.00,,,0.00,VWS V14.01,2013-01-10 06:07:00,
2013-01-10 00:10:00,48.0,46.6,30.01,NW,323,0.0,0.0,95,0.00,,CLR,0.00,VWS V14.01,2013-01-10 06:10:00,
2013-01-10 00:12:00,47.7,46.3,30.01,NW,323,0.0,0.0,95,0.00,,,0.00,VWS V14.01,2013-01-10 06:12:00,
2013-01-10 00:17:00,47.7,46.3,30.01,NW,323,0.0,0.0,95,0.00,,,0.00,VWS V14.01,2013-01-10 06:17:00,
2013-01-10 00:20:00,47.7,46.3,30.01,NW,323,0.0,0.0,95,0.00,,CLR,0.00,VWS V14.01,2013-01-10 06:20:00,
2013-01-10 00:22:00,47.4,46.0,30.01,NW,323,0.0,0.0,95,0.00,,,0.00,VWS V14.01,2013-01-10 06:22:00,
2013-01-10 00:27:00,47.2,45.8,30.01,NW,323,0.0,0.0,95,0.00,,,0.00,VWS V14.01,2013-01-10 06:27:00,
2013-01-10 00:30:00,47.5,46.1,30.01,NW,323,0.0,0.0,95,0.00,,CLR,0.00,VWS V14.01,2013-01-10 06:30:00,
2013-01-10 00:32:00,46.8,45.5,30.01,NW,323,0.0,0.0,95,0.00,,,0.00,VWS V14.01,2013-01-10 06:32:00,
2013-01-10 00:37:00,46.9,45.5,30.02,NW,323,0.0,0.0,95,0.00,,,0.00,VWS V14.01,2013-01-10 06:37:00,
2013-01-10 00:40:00,47.1,45.7,30.01,NW,323,0.0,0.0,95,0.00,,CLR,0.00,VWS V14.01,2013-01-10 06:40:00,
2013-01-10 00:42:00,47.2,45.8,30.02,NW,323,0.0,0.0,95,0.00,,,0.00,VWS V14.01,2013-01-10 06:42:00,
2013-01-10 00:47:00,47.1,45.7,30.02,NW,323,0.0,0.0,95,0.00,,,0.00,VWS V14.01,2013-01-10 06:47:00,
2013-01-10 00:50:00,47.1,45.7,30.02,NW,323,0.0,0.0,95,0.00,,CLR,0.00,VWS V14.01,2013-01-10 06:50:00,
2013-01-10 00:52:00,47.1,45.7,30.02,NW,323,0.0,0.0,95,0.00,,,0.00,VWS V14.01,2013-01-10 06:52:00,
2013-01-10 00:57:00,46.8,45.5,30.02,NW,323,0.0,0.0,95,0.00,,,0.00,VWS V14.01,2013-01-10 06:57:00,
2013-01-10 01:00:00,47.1,45.7,30.02,NW,323,0.0,0.0,95,0.00,,CLR,0.00,VWS V14.01,2013-01-10 07:00:00,
2013-01-10 01:02:00,46.6,45.2,30.02,NW,323,0.0,0.0,95,0.00,,,0.00,VWS V14.01,2013-01-10 07:02:00,
2013-01-10 01:07:00,46.2,44.8,30.02,NW,323,0.0,0.0,95,0.00,,,0.00,VWS V14.01,2013-01-10 07:07:00,
2013-01-10 01:10:00,46.8,45.5,30.02,NW,323,0.0,0.0,95,0.00,,CLR,0.00,VWS V14.01,2013-01-10 07:10:00,
2013-01-10 01:12:00,46.2,44.8,30.02,NW,323,0.0,0.0,95,0.00,,,0.00,VWS V14.01,2013-01-10 07:12:00,
2013-01-10 01:17:00,46.0,44.7,30.02,NW,323,0.0,0.0,95,0.00,,,0.00,VWS V14.01,2013-01-10 07:17:00,
2013-01-10 01:20:00,46.2,44.8,30.02,NW,323,0.0,0.0,95,0.00,,CLR,0.00,VWS V14.01,2013-01-10 07:20:00,
2013-01-10 01:22:00,45.9,44.5,30.03,NW,323,0.0,0.0,95,0.00,,,0.00,VWS V14.01,2013-01-10 07:22:00,
2013-01-10 01:27:00,46.2,44.8,30.03,NW,323,0.0,1.0,95,0.00,,,0.00,VWS V14.01,2013-01-10 07:27:00,
2013-01-10 01:30:00,45.9,44.5,30.03,NW,323,0.0,0.0,95,0.00,,CLR,0.00,VWS V14.01,2013-01-10 07:30:00,
2013-01-10 01:32:00,46.8,45.7,30.03,NW,323,0.0,1.0,96,0.00,,,0.00,VWS V14.01,2013-01-10 07:32:00,
2013-01-10 01:37:00,47.7,46.6,30.03,NW,323,0.0,1.0,96,0.00,,,0.00,VWS V14.01,2013-01-10 07:37:00,
2013-01-10 01:40:00,46.2,44.8,30.03,NW,323,0.0,1.0,95,0.00,,CLR,0.00,VWS V14.01,2013-01-10 07:40:00,
2013-01-10 01:42:00,48.1,47.0,30.03,NW,323,0.0,2.0,96,0.00,,,0.00,VWS V14.01,2013-01-10 07:42:00,
2013-01-10 01:47:00,48.3,47.2,30.03,NW,323,0.0,3.0,96,0.00,,,0.00,VWS V14.01,2013-01-10 07:47:00,
2013-01-10 01:50:00,47.8,46.7,30.03,NW,323,1.0,2.0,96,0.00,,CLR,0.00,VWS V14.01,2013-01-10 07:50:00,
2013-01-10 01:52:00,48.4,47.3,30.03,WSW,254,3.0,3.0,96,0.00,,,0.00,VWS V14.01,2013-01-10 07:52:00,
2013-01-10 01:57:00,48.7,47.6,30.03,SSW,213,1.0,3.0,96,0.00,,,0.00,VWS V14.01,2013-01-10 07:57:00,
2013-01-10 02:00:00,48.4,47.3,30.03,NW,323,0.0,3.0,96,0.00,,CLR,0.00,VWS V14.01,2013-01-10 08:00:00,
2013-01-10 02:02:00,48.7,47.6,30.03,SSW,213,2.0,2.0,96,0.00,,,0.00,VWS V14.01,2013-01-10 08:02:00,
2013-01-10 02:07:00,49.0,47.9,30.03,SSW,212,2.0,3.0,96,0.00,,,0.00,VWS V14.01,2013-01-10 08:07:00,
2013-01-10 02:10:00,48.7,47.6,30.03,SSW,213,1.0,3.0,96,0.00,,CLR,0.00,VWS V14.01,2013-01-10 08:10:00,
2013-01-10 02:12:00,49.3,48.2,30.03,SSW,212,2.0,3.0,96,0.00,,,0.00,VWS V14.01,2013-01-10 08:12:00,
2013-01-10 02:17:00,49.4,48.3,30.03,SSW,212,2.0,3.0,96,0.00,,,0.00,VWS V14.01,2013-01-10 08:17:00,
2013-01-10 02:20:00,49.0,47.9,30.03,SSW,212,2.0,3.0,96,0.00,,CLR,0.00,VWS V14.01,2013-01-10 08:20:00,
2013-01-10 02:22:00,49.4,48.3,30.03,SSW,212,1.0,1.0,96,0.00,,,0.00,VWS V14.01,2013-01-10 08:22:00,
2013-01-10 02:27:00,49.4,48.3,30.03,SSW,212,0.0,1.0,96,0.00,,,0.00,VWS V14.01,2013-01-10 08:27:00,
2013-01-10 02:30:00,49.4,48.3,30.03,SSW,212,0.0,3.0,96,0.00,,CLR,0.00,VWS V14.01,2013-01-10 08:30:00,
2013-01-10 02:32:00,49.3,48.2,30.03,SSW,212,0.0,0.0,96,0.00,,,0.00,VWS V14.01,2013-01-10 08:32:00,
2013-01-10 02:37:00,49.1,48.0,30.04,SSW,212,0.0,0.0,96,0.00,,,0.00,VWS V14.01,2013-01-10 08:37:00,
2013-01-10 02:40:00,49.4,48.3,30.03,SSW,212,0.0,1.0,96,0.00,,CLR,0.00,VWS V14.01,2013-01-10 08:40:00,
2013-01-10 02:42:00,49.0,47.9,30.04,SSW,212,0.0,0.0,96,0.00,,,0.00,VWS V14.01,2013-01-10 08:42:00,
2013-01-10 02:47:00,48.7,47.6,30.04,SSW,212,0.0,0.0,96,0.00,,,0.00,VWS V14.01,2013-01-10 08:47:00,
2013-01-10 02:50:00,49.1,48.0,30.04,SSW,212,0.0,0.0,96,0.00,,CLR,0.00,VWS V14.01,2013-01-10 08:50:00,
2013-01-10 02:52:00,48.4,47.3,30.04,SSW,212,0.0,0.0,96,0.00,,,0.00,VWS V14.01,2013-01-10 08:52:00,
2013-01-10 02:57:00,48.3,47.2,30.04,SSW,212,0.0,0.0,96,0.00,,,0.00,VWS V14.01,2013-01-10 08:57:00,
2013-01-10 03:00:00,48.6,47.5,30.04,SSW,212,0.0,0.0,96,0.00,,CLR,0.00,VWS V14.01,2013-01-10 09:00:00,
2013-01-10 03:02:00,48.1,47.0,30.04,SSW,212,0.0,0.0,96,0.00,,,0.00,VWS V14.01,2013-01-10 09:02:00,
2013-01-10 03:07:00,48.1,47.0,30.04,SSW,212,0.0,0.0,96,0.00,,,0.00,VWS V14.01,2013-01-10 09:07:00,
2013-01-10 03:10:00,48.1,47.0,30.04,SSW,212,0.0,0.0,96,0.00,,CLR,0.00,VWS V14.01,2013-01-10 09:10:00,
2013-01-10 03:12:00,48.3,47.2,30.04,SSW,212,0.0,0.0,96,0.00,,,0.00,VWS V14.01,2013-01-10 09:12:00,
2013-01-10 03:17:00,48.4,47.3,30.04,SSW,212,0.0,0.0,96,0.00,,,0.00,VWS V14.01,2013-01-10 09:17:00,
2013-01-10 03:20:00,48.3,47.2,30.04,SSW,212,0.0,0.0,96,0.00,,CLR,0.00,VWS V14.01,2013-01-10 09:20:00,
2013-01-10 03:22:00,48.6,47.5,30.04,SSW,212,0.0,0.0,96,0.00,,,0.00,VWS V14.01,2013-01-10 09:22:00,
2013-01-10 03:27:00,48.7,47.6,30.04,SSW,212,0.0,0.0,96,0.00,,,0.00,VWS V14.01,2013-01-10 09:27:00,
2013-01-10 03:30:00,48.4,47.3,30.04,SSW,212,0.0,0.0,96,0.00,,CLR,0.00,VWS V14.01,2013-01-10 09:30:00,
2013-01-10 03:32:00,48.9,47.8,30.04,SSW,212,0.0,0.0,96,0.00,,,0.00,VWS V14.01,2013-01-10 09:32:00,
2013-01-10 03:37:00,48.9,47.8,30.04,SSW,212,0.0,2.0,96,0.00,,,0.00,VWS V14.01,2013-01-10 09:37:00,
2013-01-10 03:40:00,48.7,47.6,30.04,SSW,212,0.0,0.0,96,0.00,,CLR,0.00,VWS V14.01,2013-01-10 09:40:00,
2013-01-10 03:42:00,48.9,47.8,30.04,SSW,212,0.0,1.0,96,0.00,,,0.00,VWS V14.01,2013-01-10 09:42:00,
2013-01-10 03:47:00,48.9,47.8,30.04,SSW,212,0.0,1.0,96,0.00,,,0.00,VWS V14.01,2013-01-10 09:47:00,
2013-01-10 03:50:00,48.9,47.8,30.04,SSW,212,0.0,2.0,96,0.00,,CLR,0.00,VWS V14.01,2013-01-10 09:50:00,
2013-01-10 03:52:00,48.7,47.6,30.04,SSW,212,0.0,0.0,96,0.00,,,0.00,VWS V14.01,2013-01-10 09:52:00,
2013-01-10 03:57:00,48.6,47.5,30.04,SSW,212,0.0,1.0,96,0.00,,,0.00,VWS V14.01,2013-01-10 09:57:00,
2013-01-10 04:00:00,48.9,47.8,30.04,SSW,212,0.0,1.0,96,0.00,,CLR,0.00,VWS V14.01,2013-01-10 10:00:00,
2013-01-10 04:02:00,48.3,47.2,30.04,SSW,212,0.0,1.0,96,0.00,,,0.00,VWS V14.01,2013-01-10 10:02:00,
2013-01-10 04:07:00,48.1,47.0,30.04,SSW,212,0.0,1.0,96,0.00,,,0.00,VWS V14.01,2013-01-10 10:07:00,
2013-01-10 04:10:00,48.6,47.5,30.04,SSW,212,0.0,1.0,96,0.00,,CLR,0.00,VWS V14.01,2013-01-10 10:10:00,
2013-01-10 04:12:00,48.0,46.9,30.04,SSW,212,0.0,1.0,96,0.00,,,0.00,VWS V14.01,2013-01-10 10:12:00,
2013-01-10 04:17:00,47.8,46.7,30.04,SSW,212,0.0,1.0,96,0.00,,,0.00,VWS V14.01,2013-01-10 10:17:00,
2013-01-10 04:20:00,48.1,47.0,30.04,SSW,212,0.0,2.0,96,0.00,,CLR,0.00,VWS V14.01,2013-01-10 10:20:00,
2013-01-10 04:22:00,47.4,46.3,30.04,SSW,212,0.0,0.0,96,0.00,,,0.00,VWS V14.01,2013-01-10 10:22:00,
2013-01-10 04:27:00,47.1,46.0,30.04,SSW,212,0.0,0.0,96,0.00,,,0.00,VWS V14.01,2013-01-10 10:27:00,
2013-01-10 04:30:00,47.7,46.6,30.04,SSW,212,0.0,1.0,96,0.00,,CLR,0.00,VWS V14.01,2013-01-10 10:30:00,
2013-01-10 04:32:00,46.9,45.8,30.04,SSW,212,0.0,0.0,96,0.00,,,0.00,VWS V14.01,2013-01-10 10:32:00,
2013-01-10 04:37:00,46.9,45.8,30.04,SSW,212,0.0,0.0,96,0.00,,,0.00,VWS V14.01,2013-01-10 10:37:00,
2013-01-10 04:40:00,47.1,46.0,30.04,SSW,212,0.0,0.0,96,0.00,,CLR,0.00,VWS V14.01,2013-01-10 10:40:00,
2013-01-10 04:42:00,46.8,45.7,30.04,SSW,212,0.0,0.0,96,0.00,,,0.00,VWS V14.01,2013-01-10 10:42:00,
2013-01-10 04:47:00,46.6,45.5,30.04,SSW,212,0.0,0.0,96,0.00,,,0.00,VWS V14.01,2013-01-10 10:47:00,
2013-01-10 04:50:00,46.8,45.7,30.04,SSW,212,0.0,0.0,96,0.00,,CLR,0.00,VWS V14.01,2013-01-10 10:50:00,
2013-01-10 04:52:00,46.8,45.7,30.04,SSW,212,0.0,0.0,96,0.00,,,0.00,VWS V14.01,2013-01-10 10:52:00,
2013-01-10 04:57:00,46.9,45.8,30.04,SSW,212,0.0,0.0,96,0.00,,,0.00,VWS V14.01,2013-01-10 10:57:00,
2013-01-10 05:00:00,46.6,45.5,30.04,SSW,212,0.0,0.0,96,0.00,,CLR,0.00,VWS V14.01,2013-01-10 11:00:00,
2013-01-10 05:02:00,46.6,45.5,30.04,SSW,212,0.0,0.0,96,0.00,,OVC004,0.00,VWS V14.01,2013-01-10 11:02:00,
2013-01-10 05:07:00,46.5,45.4,30.03,SSW,212,0.0,0.0,96,0.00,,OVC004,0.00,VWS V14.01,2013-01-10 11:07:00,
2013-01-10 05:10:00,46.8,45.7,30.04,SSW,212,0.0,0.0,96,0.00,,CLR,0.00,VWS V14.01,2013-01-10 11:10:00,
2013-01-10 05:12:00,46.3,45.2,30.03,SSW,212,0.0,0.0,96,0.00,,OVC004,0.00,VWS V14.01,2013-01-10 11:12:00,
2013-01-10 05:17:00,46.3,45.2,30.03,SSW,212,0.0,0.0,96,0.00,,OVC004,0.00,VWS V14.01,2013-01-10 11:17:00,
2013-01-10 05:20:00,46.5,45.4,30.03,SSW,212,0.0,0.0,96,0.00,,CLR,0.00,VWS V14.01,2013-01-10 11:20:00,
2013-01-10 05:22:00,46.2,45.1,30.03,SSW,212,0.0,0.0,96,0.00,,OVC004,0.00,VWS V14.01,2013-01-10 11:22:00,
2013-01-10 05:27:00,46.0,44.9,30.03,SSW,212,0.0,0.0,96,0.00,,OVC004,0.00,VWS V14.01,2013-01-10 11:27:00,
2013-01-10 05:30:00,46.3,45.2,30.03,SSW,212,0.0,0.0,96,0.00,,CLR,0.00,VWS V14.01,2013-01-10 11:30:00,
2013-01-10 05:32:00,45.9,44.8,30.03,SSW,212,0.0,0.0,96,0.00,,OVC004,0.00,VWS V14.01,2013-01-10 11:32:00,
2013-01-10 05:37:00,45.9,44.8,30.03,SSW,212,0.0,0.0,96,0.00,,OVC004,0.00,VWS V14.01,2013-01-10 11:37:00,
2013-01-10 05:40:00,46.0,44.9,30.03,SSW,212,0.0,0.0,96,0.00,,CLR,0.00,VWS V14.01,2013-01-10 11:40:00,
2013-01-10 05:42:00,45.9,44.8,30.03,SSW,212,0.0,3.0,96,0.00,,OVC004,0.00,VWS V14.01,2013-01-10 11:42:00,
2013-01-10 05:47:00,45.9,44.8,30.03,SSW,212,0.0,3.0,96,0.00,,OVC004,0.00,VWS V14.01,2013-01-10 11:47:00,
2013-01-10 05:50:00,45.9,44.8,30.03,SSW,212,0.0,0.0,96,0.00,,CLR,0.00,VWS V14.01,2013-01-10 11:50:00,
2013-01-10 05:52:00,46.2,45.1,30.03,SSW,212,0.0,1.0,96,0.00,,OVC004,0.00,VWS V14.01,2013-01-10 11:52:00,
2013-01-10 05:57:00,46.3,45.2,30.03,SSW,211,0.0,3.0,96,0.00,,OVC004,0.00,VWS V14.01,2013-01-10 11:57:00,
2013-01-10 06:00:00,46.0,44.9,30.03,SSW,212,0.0,3.0,96,0.00,,CLR,0.00,VWS V14.01,2013-01-10 12:00:00,
2013-01-10 06:02:00,46.6,45.5,30.03,SSW,212,0.0,2.0,96,0.00,,OVC004,0.00,VWS V14.01,2013-01-10 12:02:00,
2013-01-10 06:07:00,46.6,45.5,30.02,SSW,212,0.0,2.0,96,0.00,,OVC004,0.00,VWS V14.01,2013-01-10 12:07:00,
2013-01-10 06:10:00,46.5,45.4,30.03,SSW,211,1.0,3.0,96,0.00,,CLR,0.00,VWS V14.01,2013-01-10 12:10:00,
2013-01-10 06:12:00,46.6,45.5,30.02,SSW,212,0.0,0.0,96,0.00,,OVC004,0.00,VWS V14.01,2013-01-10 12:12:00,
2013-01-10 06:17:00,46.6,45.5,30.02,SSW,212,0.0,0.0,96,0.00,,OVC004,0.00,VWS V14.01,2013-01-10 12:17:00,
2013-01-10 06:20:00,46.6,45.5,30.02,SSW,212,0.0,2.0,96,0.00,,CLR,0.00,VWS V14.01,2013-01-10 12:20:00,
2013-01-10 06:22:00,46.5,45.4,30.03,SSW,212,0.0,0.0,96,0.00,,OVC004,0.00,VWS V14.01,2013-01-10 12:22:00,
2013-01-10 06:27:00,46.3,45.2,30.03,SSW,212,0.0,1.0,96,0.00,,OVC004,0.00,VWS V14.01,2013-01-10 12:27:00,
2013-01-10 06:30:00,46.6,45.5,30.03,SSW,212,0.0,0.0,96,0.00,,CLR,0.00,VWS V14.01,2013-01-10 12:30:00,
2013-01-10 06:32:00,46.3,45.2,30.03,SSW,212,0.0,0.0,96,0.00,,OVC004,0.00,VWS V14.01,2013-01-10 12:32:00,
2013-01-10 06:37:00,46.0,44.9,30.03,SSW,212,0.0,0.0,96,0.00,,OVC004,0.00,VWS V14.01,2013-01-10 12:37:00,
2013-01-10 06:40:00,46.3,45.2,30.03,SSW,212,0.0,1.0,96,0.00,,CLR,0.00,VWS V14.01,2013-01-10 12:40:00,
2013-01-10 06:42:00,45.9,44.8,30.03,SSW,212,0.0,0.0,96,0.00,,OVC004,0.00,VWS V14.01,2013-01-10 12:42:00,
2013-01-10 06:47:00,45.7,44.6,30.03,SSW,212,0.0,1.0,96,0.00,,OVC004,0.00,VWS V14.01,2013-01-10 12:47:00,
2013-01-10 06:50:00,46.0,44.9,30.03,SSW,212,0.0,1.0,96,0.00,,CLR,0.00,VWS V14.01,2013-01-10 12:50:00,
2013-01-10 06:52:00,45.5,44.4,30.03,SSW,212,0.0,2.0,96,0.00,,SCT004,0.00,VWS V14.01,2013-01-10 12:52:00,
2013-01-10 06:57:00,45.3,44.2,30.03,SSW,212,0.0,2.0,96,0.00,,SCT004,0.00,VWS V14.01,2013-01-10 12:57:00,
2013-01-10 07:00:00,45.6,44.5,30.03,SSW,212,0.0,1.0,96,0.00,,CLR,0.00,VWS V14.01,2013-01-10 13:00:00,
2013-01-10 07:02:00,45.3,44.2,30.03,SSW,212,1.0,3.0,96,0.00,,SCT006,0.00,VWS V14.01,2013-01-10 13:02:00,
2013-01-10 07:07:00,45.2,44.1,30.04,SSW,212,2.0,3.0,96,0.00,,SCT006,0.00,VWS V14.01,2013-01-10 13:07:00,
2013-01-10 07:10:00,45.3,44.2,30.03,SSW,212,3.0,3.0,96,0.00,,CLR,0.00,VWS V14.01,2013-01-10 13:10:00,
2013-01-10 07:12:00,44.9,43.8,30.04,SSW,212,1.0,2.0,96,0.00,,SCT006,0.00,VWS V14.01,2013-01-10 13:12:00,
2013-01-10 07:17:00,44.7,43.6,30.04,SSW,212,0.0,2.0,96,0.00,,SCT006,0.00,VWS V14.01,2013-01-10 13:17:00,
2013-01-10 07:20:00,45.0,43.9,30.04,SSW,212,1.0,3.0,96,0.00,,CLR,0.00,VWS V14.01,2013-01-10 13:20:00,
2013-01-10 07:22:00,44.4,43.3,30.04,SSW,212,0.0,0.0,96,0.00,,SCT006,0.00,VWS V14.01,2013-01-10 13:22:00,
2013-01-10 07:27:00,44.0,42.9,30.04,SSW,212,0.0,0.0,96,0.00,,SCT006,0.00,VWS V14.01,2013-01-10 13:27:00,
2013-01-10 07:30:00,44.7,43.6,30.04,SSW,212,0.0,2.0,96,0.00,,CLR,0.00,VWS V14.01,2013-01-10 13:30:00,
2013-01-10 07:32:00,43.7,42.6,30.04,SSW,212,1.0,1.0,96,0.00,,SCT006,0.00,VWS V14.01,2013-01-10 13:32:00,
2013-01-10 07:37:00,43.8,42.7,30.04,SSW,212,0.0,1.0,96,0.00,,SCT006,0.00,VWS V14.01,2013-01-10 13:37:00,
2013-01-10 07:40:00,43.8,42.7,30.04,SSW,212,0.0,0.0,96,0.00,,CLR,0.00,VWS V14.01,2013-01-10 13:40:00,
2013-01-10 07:42:00,43.8,42.7,30.04,SSW,212,0.0,0.0,96,0.00,,SCT006,0.00,VWS V14.01,2013-01-10 13:42:00,
2013-01-10 07:47:00,43.7,42.6,30.04,SSW,212,0.0,0.0,96,0.00,,SCT006,0.00,VWS V14.01,2013-01-10 13:47:00,
2013-01-10 07:50:00,43.8,42.7,30.04,SSW,212,0.0,1.0,96,0.00,,CLR,0.00,VWS V14.01,2013-01-10 13:50:00,
2013-01-10 07:52:00,43.7,42.6,30.04,SSW,212,0.0,0.0,96,0.00,,SCT006,0.00,VWS V14.01,2013-01-10 13:52:00,
2013-01-10 07:57:00,43.8,42.7,30.04,SSW,212,0.0,0.0,96,0.00,,SCT006,0.00,VWS V14.01,2013-01-10 13:57:00,
2013-01-10 08:00:00,43.7,42.6,30.04,SSW,212,0.0,0.0,96,0.00,,CLR,0.00,VWS V14.01,2013-01-10 14:00:00,
2013-01-10 08:02:00,43.8,42.7,30.04,SSW,212,1.0,2.0,96,0.00,,,0.00,VWS V14.01,2013-01-10 14:02:00,
2013-01-10 08:07:00,44.0,42.9,30.05,SSW,212,0.0,2.0,96,0.00,,,0.00,VWS V14.01,2013-01-10 14:07:00,
2013-01-10 08:10:00,43.8,42.7,30.04,SSW,212,0.0,0.0,96,0.00,,CLR,0.00,VWS V14.01,2013-01-10 14:10:00,
2013-01-10 08:12:00,44.3,43.2,30.05,SSW,212,0.0,2.0,96,0.00,,,0.00,VWS V14.01,2013-01-10 14:12:00,
2013-01-10 08:17:00,44.6,43.5,30.05,SSW,212,0.0,2.0,96,0.00,,,0.00,VWS V14.01,2013-01-10 14:17:00,
2013-01-10 08:20:00,44.1,43.0,30.05,SSW,212,0.0,2.0,96,0.00,,CLR,0.00,VWS V14.01,2013-01-10 14:20:00,
2013-01-10 08:22:00,44.9,43.8,30.05,SSW,212,0.0,2.0,96,0.00,,,0.00,VWS V14.01,2013-01-10 14:22:00,
2013-01-10 08:27:00,45.0,43.9,30.05,SSW,212,0.0,2.0,96,0.00,,,0.00,VWS V14.01,2013-01-10 14:27:00,
2013-01-10 08:30:00,44.6,43.5,30.05,SSW,212,0.0,2.0,96,0.00,,CLR,0.00,VWS V14.01,2013-01-10 14:30:00,
2013-01-10 08:32:00,45.5,44.4,30.05,SSW,212,0.0,1.0,96,0.00,,,0.00,VWS V14.01,2013-01-10 14:32:00,
2013-01-10 08:37:00,45.9,44.8,30.04,SSW,212,0.0,1.0,96,0.00,,,0.00,VWS V14.01,2013-01-10 14:37:00,
2013-01-10 08:40:00,45.2,44.1,30.05,SSW,212,0.0,2.0,96,0.00,,CLR,0.00,VWS V14.01,2013-01-10 14:40:00,
2013-01-10 08:42:00,46.2,45.1,30.04,SSW,212,0.0,0.0,96,0.00,,,0.00,VWS V14.01,2013-01-10 14:42:00,
2013-01-10 08:47:00,46.6,45.5,30.04,SSW,212,0.0,1.0,96,0.00,,,0.00,VWS V14.01,2013-01-10 14:47:00,
2013-01-10 08:50:00,45.9,44.8,30.04,SSW,212,0.0,1.0,96,0.00,,CLR,0.00,VWS V14.01,2013-01-10 14:50:00,
2013-01-10 08:52:00,46.9,45.8,30.03,SSW,212,0.0,1.0,96,0.00,,,0.00,VWS V14.01,2013-01-10 14:52:00,
2013-01-10 08:57:00,46.9,45.8,30.03,SW,215,0.0,1.0,96,0.00,,,0.00,VWS V14.01,2013-01-10 14:57:00,
2013-01-10 09:00:00,46.6,45.5,30.03,SSW,212,0.0,1.0,96,0.00,,CLR,0.00,VWS V14.01,2013-01-10 15:00:00,
2013-01-10 09:02:00,47.2,46.1,30.03,SW,216,0.0,1.0,96,0.00,,CLR,0.00,VWS V14.01,2013-01-10 15:02:00,
2013-01-10 09:07:00,47.5,46.4,30.03,NW,321,1.0,3.0,96,0.00,,CLR,0.00,VWS V14.01,2013-01-10 15:07:00,
2013-01-10 09:10:00,47.1,46.0,30.03,SW,215,0.0,1.0,96,0.00,,CLR,0.00,VWS V14.01,2013-01-10 15:10:00,
2013-01-10 09:12:00,47.5,46.4,30.03,NW,304,1.0,2.0,96,0.00,,CLR,0.00,VWS V14.01,2013-01-10 15:12:00,
2013-01-10 09:17:00,47.7,46.6,30.03,WSW,248,1.0,2.0,96,0.00,,CLR,0.00,VWS V14.01,2013-01-10 15:17:00,
2013-01-10 09:20:00,47.5,46.4,30.03,NW,320,1.0,3.0,96,0.00,,CLR,0.00,VWS V14.01,2013-01-10 15:20:00,
2013-01-10 09:22:00,47.8,46.7,30.03,WSW,248,0.0,1.0,96,0.00,,CLR,0.00,VWS V14.01,2013-01-10 15:22:00,
2013-01-10 09:27:00,48.3,47.2,30.03,WSW,248,0.0,2.0,96,0.00,,CLR,0.00,VWS V14.01,2013-01-10 15:27:00,
2013-01-10 09:30:00,47.7,46.6,30.03,WSW,248,0.0,2.0,96,0.00,,CLR,0.00,VWS V14.01,2013-01-10 15:30:00,
2013-01-10 09:32:00,48.7,47.3,30.03,WSW,246,0.0,2.0,95,0.00,,CLR,0.00,VWS V14.01,2013-01-10 15:32:00,
2013-01-10 09:37:00,49.1,47.5,30.03,WSW,246,0.0,2.0,94,0.00,,CLR,0.00,VWS V14.01,2013-01-10 15:37:00,
2013-01-10 09:40:00,48.3,46.9,30.03,WSW,245,0.0,2.0,95,0.00,,CLR,0.00,VWS V14.01,2013-01-10 15:40:00,
2013-01-10 09:42:00,49.9,47.7,30.03,WNW,283,1.0,3.0,92,0.00,,CLR,0.00,VWS V14.01,2013-01-10 15:42:00,
2013-01-10 09:47:00,50.6,47.2,30.03,SW,226,0.0,3.0,88,0.00,,CLR,0.00,VWS V14.01,2013-01-10 15:47:00,
2013-01-10 09:50:00,49.3,47.7,30.03,SSW,204,0.0,2.0,94,0.00,,CLR,0.00,VWS V14.01,2013-01-10 15:50:00,
2013-01-10 09:52:00,51.4,46.4,30.03,WSW,240,0.0,3.0,83,0.00,,CLR,0.00,VWS V14.01,2013-01-10 15:52:00,
2013-01-10 09:57:00,52.3,46.0,30.03,WSW,243,1.0,3.0,79,0.00,,CLR,0.00,VWS V14.01,2013-01-10 15:57:00,
2013-01-10 10:00:00,50.8,47.4,30.03,SW,232,0.0,3.0,88,0.00,,CLR,0.00,VWS V14.01,2013-01-10 16:00:00,
2013-01-10 10:02:00,53.1,45.0,30.03,WSW,253,0.0,3.0,74,0.00,,CLR,0.00,VWS V14.01,2013-01-10 16:02:00,
2013-01-10 10:07:00,54.0,44.8,30.03,WSW,246,1.0,3.0,71,0.00,,CLR,0.00,VWS V14.01,2013-01-10 16:07:00,
2013-01-10 10:10:00,52.4,45.8,30.03,WSW,237,1.0,3.0,78,0.00,,CLR,0.00,VWS V14.01,2013-01-10 16:10:00,
2013-01-10 10:12:00,54.9,44.2,30.03,North,355,2.0,3.0,67,0.00,,CLR,0.00,VWS V14.01,2013-01-10 16:12:00,
2013-01-10 10:17:00,55.7,45.3,30.03,WSW,240,0.0,4.0,68,0.00,,CLR,0.00,VWS V14.01,2013-01-10 16:17:00,
2013-01-10 10:20:00,54.2,44.6,30.03,SW,231,2.0,3.0,70,0.00,,CLR,0.00,VWS V14.01,2013-01-10 16:20:00,
2013-01-10 10:22:00,56.4,44.8,30.03,WSW,255,1.0,4.0,65,0.00,,CLR,0.00,VWS V14.01,2013-01-10 16:22:00,
2013-01-10 10:27:00,57.0,45.0,30.03,SSW,213,4.0,5.0,64,0.00,,CLR,0.00,VWS V14.01,2013-01-10 16:27:00,
2013-01-10 10:30:00,56.0,44.8,30.03,WSW,240,1.0,4.0,66,0.00,,CLR,0.00,VWS V14.01,2013-01-10 16:30:00,
2013-01-10 10:32:00,57.3,44.0,30.03,SW,229,2.0,5.0,61,0.01,,CLR,0.01,VWS V14.01,2013-01-10 16:32:00,
2013-01-10 10:37:00,57.8,44.5,30.03,WSW,254,1.0,5.0,61,0.01,,CLR,0.01,VWS V14.01,2013-01-10 16:37:00,
2013-01-10 10:40:00,57.0,43.7,30.03,SW,232,2.0,6.0,61,0.00,,CLR,0.00,VWS V14.01,2013-01-10 16:40:00,
2013-01-10 10:42:00,58.1,43.4,30.03,WSW,242,1.0,5.0,58,0.01,,CLR,0.01,VWS V14.01,2013-01-10 16:42:00,
2013-01-10 10:47:00,58.5,42.9,30.03,WSW,258,2.0,5.0,56,0.01,,CLR,0.01,VWS V14.01,2013-01-10 16:47:00,
2013-01-10 10:50:00,57.9,44.1,30.03,SW,236,3.0,5.0,60,0.01,,CLR,0.01,VWS V14.01,2013-01-10 16:50:00,
2013-01-10 10:52:00,58.8,43.2,30.03,SW,234,0.0,6.0,56,0.01,,CLR,0.01,VWS V14.01,2013-01-10 16:52:00,
2013-01-10 10:57:00,59.3,44.1,30.03,SW,230,5.0,6.0,57,0.01,,CLR,0.01,VWS V14.01,2013-01-10 16:57:00,
2013-01-10 11:00:00,58.7,43.1,30.03,West,263,4.0,5.0,56,0.01,,CLR,0.01,VWS V14.01,2013-01-10 17:00:00,
2013-01-10 11:02:00,59.6,43.0,30.03,SW,228,3.0,5.0,54,0.01,,CLR,0.01,VWS V14.01,2013-01-10 17:02:00,
2013-01-10 11:07:00,59.7,42.6,30.04,WSW,253,1.0,5.0,53,0.01,,CLR,0.01,VWS V14.01,2013-01-10 17:07:00,
2013-01-10 11:10:00,59.3,42.7,30.03,West,263,1.0,6.0,54,0.01,,CLR,0.01,VWS V14.01,2013-01-10 17:10:00,
2013-01-10 11:12:00,60.0,42.8,30.04,WSW,238,3.0,4.0,53,0.01,,CLR,0.01,VWS V14.01,2013-01-10 17:12:00,
2013-01-10 11:17:00,60.2,42.5,30.04,SW,224,2.0,5.0,52,0.01,,CLR,0.01,VWS V14.01,2013-01-10 17:17:00,
2013-01-10 11:20:00,59.9,43.2,30.04,SSW,213,1.0,5.0,54,0.01,,CLR,0.01,VWS V14.01,2013-01-10 17:20:00,
2013-01-10 11:22:00,60.4,42.2,30.05,West,265,0.0,4.0,51,0.01,,CLR,0.01,VWS V14.01,2013-01-10 17:22:00,
2013-01-10 11:27:00,60.8,42.1,30.05,WNW,283,1.0,4.0,50,0.01,,CLR,0.01,VWS V14.01,2013-01-10 17:27:00,
2013-01-10 11:30:00,60.2,42.0,30.05,West,269,3.0,5.0,51,0.01,,CLR,0.01,VWS V14.01,2013-01-10 17:30:00,
2013-01-10 11:32:00,61.0,41.7,30.05,WSW,247,3.0,5.0,49,0.01,,CLR,0.01,VWS V14.01,2013-01-10 17:32:00,
2013-01-10 11:37:00,61.3,42.0,30.04,WSW,244,0.0,6.0,49,0.01,,CLR,0.01,VWS V14.01,2013-01-10 17:37:00,
2013-01-10 11:40:00,60.8,42.1,30.05,SW,236,2.0,4.0,50,0.01,,CLR,0.01,VWS V14.01,2013-01-10 17:40:00,
2013-01-10 11:42:00,61.8,42.5,30.04,SSW,196,1.0,4.0,49,0.00,,CLR,0.01,VWS V14.01,2013-01-10 17:42:00,
2013-01-10 11:47:00,62.1,42.7,30.04,West,263,2.0,6.0,49,0.00,,CLR,0.01,VWS V14.01,2013-01-10 17:47:00,
2013-01-10 11:50:00,61.3,43.5,30.04,SW,234,0.0,6.0,52,0.01,,CLR,0.01,VWS V14.01,2013-01-10 17:50:00,
2013-01-10 11:52:00,62.6,44.2,30.03,SW,231,1.0,3.0,51,0.00,,CLR,0.01,VWS V14.01,2013-01-10 17:52:00,
2013-01-10 11:57:00,62.7,43.3,30.03,West,278,0.0,3.0,49,0.00,,CLR,0.01,VWS V14.01,2013-01-10 17:57:00,
2013-01-10 12:00:00,62.1,43.8,30.03,WSW,238,0.0,6.0,51,0.00,,CLR,0.01,VWS V14.01,2013-01-10 18:00:00,
2013-01-10 12:02:00,63.0,43.6,30.03,NNW,332,1.0,5.0,49,0.00,,CLR,0.01,VWS V14.01,2013-01-10 18:02:00,
2013-01-10 12:07:00,62.9,42.9,30.03,SW,214,1.0,5.0,48,0.00,,CLR,0.01,VWS V14.01,2013-01-10 18:07:00,
2013-01-10 12:10:00,62.9,43.5,30.03,WSW,238,1.0,3.0,49,0.00,,CLR,0.01,VWS V14.01,2013-01-10 18:10:00,
2013-01-10 12:12:00,63.0,45.1,30.03,SW,214,2.0,3.0,52,0.00,,CLR,0.01,VWS V14.01,2013-01-10 18:12:00,
2013-01-10 12:17:00,63.2,42.7,30.03,WNW,293,0.0,4.0,47,0.00,,CLR,0.01,VWS V14.01,2013-01-10 18:17:00,
2013-01-10 12:20:00,62.9,42.9,30.03,WSW,238,2.0,5.0,48,0.00,,CLR,0.01,VWS V14.01,2013-01-10 18:20:00,
2013-01-10 12:22:00,63.5,44.5,30.02,North,351,0.0,4.0,50,0.00,,CLR,0.01,VWS V14.01,2013-01-10 18:22:00,
2013-01-10 12:27:00,63.8,43.8,30.02,SSW,211,0.0,4.0,48,0.00,,CLR,0.01,VWS V14.01,2013-01-10 18:27:00,
2013-01-10 12:30:00,63.2,42.7,30.02,SW,216,2.0,4.0,47,0.00,,CLR,0.01,VWS V14.01,2013-01-10 18:30:00,
2013-01-10 12:32:00,64.2,43.6,30.02,South,189,1.0,5.0,47,0.00,,CLR,0.01,VWS V14.01,2013-01-10 18:32:00,
2013-01-10 12:37:00,64.2,44.1,30.01,SW,223,0.0,5.0,48,0.00,,CLR,0.01,VWS V14.01,2013-01-10 18:37:00,
2013-01-10 12:40:00,64.0,43.9,30.02,SSW,212,0.0,4.0,48,0.00,,CLR,0.01,VWS V14.01,2013-01-10 18:40:00,
2013-01-10 12:42:00,64.5,44.9,30.01,NW,325,1.0,4.0,49,0.00,,CLR,0.01,VWS V14.01,2013-01-10 18:42:00,
2013-01-10 12:47:00,64.8,43.6,30.01,NW,323,0.0,4.0,46,0.00,,CLR,0.01,VWS V14.01,2013-01-10 18:47:00,
2013-01-10 12:50:00,64.3,44.8,30.01,SW,216,0.0,5.0,49,0.00,,CLR,0.01,VWS V14.01,2013-01-10 18:50:00,
2013-01-10 12:52:00,65.3,43.4,30.01,NW,321,0.0,2.0,45,0.00,,CLR,0.01,VWS V14.01,2013-01-10 18:52:00,
2013-01-10 12:57:00,65.3,44.0,30.01,SSW,198,0.0,5.0,46,0.00,,CLR,0.01,VWS V14.01,2013-01-10 18:57:00,
2013-01-10 13:00:00,65.0,43.7,30.01,NW,322,1.0,4.0,46,0.00,,CLR,0.01,VWS V14.01,2013-01-10 19:00:00,
2013-01-10 13:02:00,65.1,43.8,30.01,SSW,197,4.0,5.0,46,0.00,,CLR,0.01,VWS V14.01,2013-01-10 19:02:00,
2013-01-10 13:07:00,64.7,42.9,30.01,SSW,199,0.0,9.0,45,0.00,,CLR,0.01,VWS V14.01,2013-01-10 19:07:00,
2013-01-10 13:10:00,65.3,43.4,30.01,SSW,198,1.0,5.0,45,0.00,,CLR,0.01,VWS V14.01,2013-01-10 19:10:00,
2013-01-10 13:12:00,64.8,43.0,30.01,NNE,15,0.0,4.0,45,0.00,,CLR,0.01,VWS V14.01,2013-01-10 19:12:00,
2013-01-10 13:17:00,65.3,43.4,30.01,NNE,14,0.0,4.0,45,0.00,,CLR,0.01,VWS V14.01,2013-01-10 19:17:00,
2013-01-10 13:20:00,64.7,44.0,30.01,SSW,199,1.0,9.0,47,0.00,,CLR,0.01,VWS V14.01,2013-01-10 19:20:00,
2013-01-10 13:22:00,66.1,43.6,30.00,SSW,200,1.0,5.0,44,0.00,,CLR,0.01,VWS V14.01,2013-01-10 19:22:00,
2013-01-10 13:27:00,66.4,42.6,30.00,NW,307,0.0,5.0,42,0.00,,CLR,0.01,VWS V14.01,2013-01-10 19:27:00,
2013-01-10 13:30:00,65.5,44.2,30.00,NNE,14,0.0,4.0,46,0.00,,CLR,0.01,VWS V14.01,2013-01-10 19:30:00,
2013-01-10 13:32:00,66.9,43.7,30.00,WNW,286,0.0,3.0,43,0.00,,CLR,0.01,VWS V14.01,2013-01-10 19:32:00,
2013-01-10 13:37:00,67.3,42.2,30.00,West,263,0.0,3.0,40,0.00,,CLR,0.01,VWS V14.01,2013-01-10 19:37:00,
2013-01-10 13:40:00,66.4,42.6,30.00,NW,308,0.0,5.0,42,0.00,,CLR,0.01,VWS V14.01,2013-01-10 19:40:00,
2013-01-10 13:42:00,67.6,42.4,30.00,West,270,0.0,1.0,40,0.00,,CLR,0.01,VWS V14.01,2013-01-10 19:42:00,
2013-01-10 13:47:00,67.6,42.4,30.00,NW,326,0.0,5.0,40,0.00,,CLR,0.01,VWS V14.01,2013-01-10 19:47:00,
2013-01-10 13:50:00,67.3,44.1,30.00,West,263,0.0,3.0,43,0.00,,CLR,0.01,VWS V14.01,2013-01-10 19:50:00,
2013-01-10 13:52:00,67.4,44.2,29.99,SSW,211,0.0,3.0,43,0.00,,CLR,0.01,VWS V14.01,2013-01-10 19:52:00,
2013-01-10 13:57:00,67.4,42.3,29.99,SSE,161,0.0,4.0,40,0.00,,CLR,0.01,VWS V14.01,2013-01-10 19:57:00,
2013-01-10 14:00:00,67.6,41.8,29.99,SSW,213,3.0,5.0,39,0.00,,CLR,0.01,VWS V14.01,2013-01-10 20:00:00,
2013-01-10 14:02:00,67.3,42.2,29.99,SSW,200,3.0,5.0,40,0.00,,CLR,0.01,VWS V14.01,2013-01-10 20:02:00,
2013-01-10 14:08:00,66.9,42.5,29.99,South,172,2.0,5.0,41,0.00,,CLR,0.01,VWS V14.01,2013-01-10 20:08:00,
2013-01-10 14:10:00,67.4,42.9,29.99,SSW,192,3.0,4.0,41,0.00,,CLR,0.01,VWS V14.01,2013-01-10 20:10:00,
2013-01-10 14:13:00,66.6,42.2,29.99,SW,216,3.0,7.0,41,0.00,,CLR,0.01,VWS V14.01,2013-01-10 20:13:00,
2013-01-10 14:18:00,66.4,42.0,29.98,SW,214,1.0,7.0,41,0.00,,CLR,0.01,VWS V14.01,2013-01-10 20:18:00,
2013-01-10 14:20:00,66.9,41.8,29.99,South,190,5.0,5.0,40,0.00,,CLR,0.01,VWS V14.01,2013-01-10 20:20:00,
2013-01-10 14:23:00,66.3,42.5,29.98,South,177,0.0,7.0,42,0.00,,CLR,0.01,VWS V14.01,2013-01-10 20:23:00,
2013-01-10 14:28:00,66.6,42.2,29.98,SW,223,0.0,7.0,41,0.00,,CLR,0.01,VWS V14.01,2013-01-10 20:28:00,
2013-01-10 14:30:00,66.4,42.6,29.98,SW,214,0.0,7.0,42,0.00,,CLR,0.01,VWS V14.01,2013-01-10 20:30:00,
2013-01-10 14:33:00,66.8,41.7,29.98,WSW,252,0.0,2.0,40,0.00,,CLR,0.01,VWS V14.01,2013-01-10 20:33:00,
2013-01-10 14:38:00,67.3,42.2,29.98,West,270,0.0,2.0,40,0.00,,CLR,0.01,VWS V14.01,2013-01-10 20:38:00,
2013-01-10 14:40:00,66.6,42.2,29.98,WSW,251,2.0,7.0,41,0.00,,CLR,0.01,VWS V14.01,2013-01-10 20:40:00,
2013-01-10 14:43:00,67.8,41.3,29.98,WNW,284,0.0,4.0,38,0.00,,CLR,0.01,VWS V14.01,2013-01-10 20:43:00,
2013-01-10 14:48:00,68.1,42.9,29.98,WSW,256,1.0,4.0,40,0.00,,CLR,0.01,VWS V14.01,2013-01-10 20:48:00,
2013-01-10 14:50:00,67.4,42.9,29.98,West,270,1.0,2.0,41,0.00,,CLR,0.01,VWS V14.01,2013-01-10 20:50:00,
2013-01-10 14:53:00,68.3,41.0,29.98,West,276,0.0,2.0,37,0.00,,CLR,0.01,VWS V14.01,2013-01-10 20:53:00,
2013-01-10 14:58:00,67.9,42.1,29.98,South,185,2.0,6.0,39,0.00,,CLR,0.01,VWS V14.01,2013-01-10 20:58:00,
2013-01-10 15:00:00,68.1,42.2,29.98,WSW,256,0.0,4.0,39,0.00,,CLR,0.01,VWS V14.01,2013-01-10 21:00:00,
2013-01-10 15:03:00,67.3,41.5,29.98,SSW,196,2.0,6.0,39,0.00,,CLR,0.01,VWS V14.01,2013-01-10 21:03:00,
2013-01-10 15:08:00,66.9,41.8,29.98,SW,221,2.0,6.0,40,0.00,,CLR,0.01,VWS V14.01,2013-01-10 21:08:00,
2013-01-10 15:10:00,67.9,42.1,29.98,South,185,1.0,6.0,39,0.00,,CLR,0.01,VWS V14.01,2013-01-10 21:10:00,
2013-01-10 15:13:00,66.9,42.5,29.98,SSW,198,3.0,6.0,41,0.00,,CLR,0.01,VWS V14.01,2013-01-10 21:13:00,
2013-01-10 15:18:00,66.9,41.8,29.97,SSW,198,0.0,6.0,40,0.00,,CLR,0.01,VWS V14.01,2013-01-10 21:18:00,
2013-01-10 15:20:00,66.9,41.8,29.98,SW,221,0.0,6.0,40,0.00,,CLR,0.01,VWS V14.01,2013-01-10 21:20:00,
2013-01-10 15:23:00,66.9,41.2,29.97,South,183,0.0,5.0,39,0.00,,CLR,0.01,VWS V14.01,2013-01-10 21:23:00,
2013-01-10 15:28:00,67.1,41.3,29.97,South,186,0.0,5.0,39,0.00,,CLR,0.01,VWS V14.01,2013-01-10 21:28:00,
2013-01-10 15:30:00,66.9,41.8,29.97,SSW,198,1.0,6.0,40,0.00,,CLR,0.01,VWS V14.01,2013-01-10 21:30:00,
2013-01-10 15:33:00,67.1,42.6,29.98,South,187,0.0,3.0,41,0.00,,CLR,0.01,VWS V14.01,2013-01-10 21:33:00,
2013-01-10 15:38:00,67.3,42.8,29.98,South,187,0.0,3.0,41,0.00,,CLR,0.01,VWS V14.01,2013-01-10 21:38:00,
2013-01-10 15:40:00,67.1,41.3,29.97,South,186,0.0,5.0,39,0.00,,CLR,0.01,VWS V14.01,2013-01-10 21:40:00,
2013-01-10 15:43:00,67.4,42.9,29.98,South,190,0.0,4.0,41,0.00,,CLR,0.01,VWS V14.01,2013-01-10 21:43:00,
2013-01-10 15:48:00,67.3,41.5,29.98,SSW,192,4.0,4.0,39,0.00,,CLR,0.01,VWS V14.01,2013-01-10 21:48:00,
2013-01-10 15:50:00,67.3,42.8,29.98,South,187,0.0,3.0,41,0.00,,CLR,0.01,VWS V14.01,2013-01-10 21:50:00,
2013-01-10 15:53:00,66.8,41.1,29.98,SE,146,0.0,4.0,39,0.00,,CLR,0.01,VWS V14.01,2013-01-10 21:53:00,
2013-01-10 15:58:00,66.6,42.2,29.98,WSW,254,0.0,4.0,41,0.00,,CLR,0.01,VWS V14.01,2013-01-10 21:58:00,
2013-01-10 16:00:00,67.3,41.5,29.98,SSW,192,1.0,4.0,39,0.00,,CLR,0.01,VWS V14.01,2013-01-10 22:00:00,
2013-01-10 16:03:00,66.6,41.5,29.99,SSW,202,5.0,5.0,40,0.00,,CLR,0.01,VWS V14.01,2013-01-10 22:03:00,
2013-01-10 16:08:00,65.9,42.8,29.99,SSW,194,0.0,6.0,43,0.00,,CLR,0.01,VWS V14.01,2013-01-10 22:08:00,
2013-01-10 16:10:00,66.6,41.5,29.98,WSW,254,0.0,4.0,40,0.00,,CLR,0.01,VWS V14.01,2013-01-10 22:10:00,
2013-01-10 16:13:00,65.6,41.3,29.99,SSW,194,1.0,2.0,41,0.00,,CLR,0.01,VWS V14.01,2013-01-10 22:13:00,
2013-01-10 16:18:00,65.5,42.4,29.99,SSW,194,2.0,3.0,43,0.00,,CLR,0.01,VWS V14.01,2013-01-10 22:18:00,
2013-01-10 16:20:00,65.9,42.8,29.99,SSW,194,0.0,6.0,43,0.00,,CLR,0.01,VWS V14.01,2013-01-10 22:20:00,
2013-01-10 16:23:00,65.1,42.1,29.99,SSW,194,6.0,6.0,43,0.00,,CLR,0.01,VWS V14.01,2013-01-10 22:23:00,
2013-01-10 16:28:00,65.0,41.4,29.99,SSW,192,2.0,6.0,42,0.00,,CLR,0.01,VWS V14.01,2013-01-10 22:28:00,
2013-01-10 16:30:00,65.5,42.4,29.99,SSW,194,2.0,3.0,43,0.00,,CLR,0.01,VWS V14.01,2013-01-10 22:30:00,
2013-01-10 16:33:00,64.8,42.4,29.98,SSW,192,0.0,3.0,44,0.00,,CLR,0.01,VWS V14.01,2013-01-10 22:33:00,
2013-01-10 16:38:00,64.8,43.0,29.98,SSW,194,1.0,4.0,45,0.00,,CLR,0.01,VWS V14.01,2013-01-10 22:38:00,
2013-01-10 16:40:00,65.0,42.6,29.99,SSW,192,0.0,6.0,44,0.00,,CLR,0.01,VWS V14.01,2013-01-10 22:40:00,
2013-01-10 16:43:00,64.5,42.1,29.98,SSW,194,1.0,4.0,44,0.00,,CLR,0.01,VWS V14.01,2013-01-10 22:43:00,
2013-01-10 16:48:00,64.5,42.1,29.98,SSW,194,2.0,4.0,44,0.00,,CLR,0.01,VWS V14.01,2013-01-10 22:48:00,
2013-01-10 16:50:00,64.7,42.9,29.98,SSW,194,2.0,4.0,45,0.00,,CLR,0.01,VWS V14.01,2013-01-10 22:50:00,
2013-01-10 16:53:00,64.5,41.5,29.98,South,191,0.0,2.0,43,0.00,,CLR,0.01,VWS V14.01,2013-01-10 22:53:00,
2013-01-10 16:58:00,64.3,42.5,29.98,South,189,1.0,3.0,45,0.00,,CLR,0.01,VWS V14.01,2013-01-10 22:58:00,
2013-01-10 17:00:00,64.5,42.1,29.98,SSW,194,1.0,4.0,44,0.00,,CLR,0.01,VWS V14.01,2013-01-10 23:00:00,
2013-01-10 17:03:00,64.0,42.8,29.98,South,189,0.0,0.0,46,0.00,,CLR,0.01,VWS V14.01,2013-01-10 23:03:00,
2013-01-10 17:08:00,63.7,43.1,29.98,South,189,1.0,3.0,47,0.00,,CLR,0.01,VWS V14.01,2013-01-10 23:08:00,
2013-01-10 17:10:00,64.3,42.5,29.98,South,189,0.0,3.0,45,0.00,,CLR,0.01,VWS V14.01,2013-01-10 23:10:00,
2013-01-10 17:13:00,63.2,43.2,29.98,South,189,0.0,2.0,48,0.00,,CLR,0.01,VWS V14.01,2013-01-10 23:13:00,
2013-01-10 17:18:00,62.7,43.3,29.98,South,189,0.0,2.0,49,0.00,,CLR,0.01,VWS V14.01,2013-01-10 23:18:00,
2013-01-10 17:20:00,63.7,42.5,29.98,South,189,0.0,3.0,46,0.00,,CLR,0.01,VWS V14.01,2013-01-10 23:20:00,
2013-01-10 17:23:00,62.4,43.0,29.98,South,189,0.0,1.0,49,0.00,,CLR,0.01,VWS V14.01,2013-01-10 23:23:00,
2013-01-10 17:28:00,61.9,44.1,29.98,South,189,0.0,1.0,52,0.00,,CLR,0.01,VWS V14.01,2013-01-10 23:28:00,
2013-01-10 17:30:00,62.7,43.3,29.98,South,189,0.0,2.0,49,0.00,,CLR,0.01,VWS V14.01,2013-01-10 23:30:00,
2013-01-10 17:33:00,61.1,43.9,29.99,South,189,0.0,0.0,53,0.00,,CLR,0.01,VWS V14.01,2013-01-10 23:33:00,
2013-01-10 17:38:00,60.7,44.0,29.99,South,189,0.0,0.0,54,0.00,,CLR,0.01,VWS V14.01,2013-01-10 23:38:00,
2013-01-10 17:40:00,61.8,44.0,29.98,South,189,0.0,1.0,52,0.00,,CLR,0.01,VWS V14.01,2013-01-10 23:40:00,
2013-01-10 17:43:00,60.2,44.0,29.99,South,189,0.0,0.0,55,0.00,,CLR,0.01,VWS V14.01,2013-01-10 23:43:00,
2013-01-10 17:48:00,59.6,43.9,29.98,South,189,0.0,0.0,56,0.00,,CLR,0.01,VWS V14.01,2013-01-10 23:48:00,
2013-01-10 17:50:00,60.7,44.0,29.99,South,189,0.0,0.0,54,0.00,,CLR,0.01,VWS V14.01,2013-01-10 23:50:00,
2013-01-10 17:53:00,59.0,43.8,29.98,South,189,0.0,0.0,57,0.00,,CLR,0.01,VWS V14.01,2013-01-10 23:53:00,
2013-01-10 17:58:00,58.5,43.8,29.98,South,189,0.0,0.0,58,0.00,,CLR,0.01,VWS V14.01,2013-01-10 23:58:00,
2013-01-10 18:00:00,59.6,43.9,29.98,South,189,0.0,0.0,56,0.00,,CLR,0.01,VWS V14.01,2013-01-11 00:00:00,
2013-01-10 18:03:00,57.9,44.1,29.98,South,189,0.0,0.0,60,0.00,,CLR,0.01,VWS V14.01,2013-01-11 00:03:00,
2013-01-10 18:08:00,57.1,43.8,29.98,South,189,0.0,0.0,61,0.00,,CLR,0.01,VWS V14.01,2013-01-11 00:08:00,
2013-01-10 18:10:00,58.5,43.8,29.98,South,189,0.0,0.0,58,0.00,,CLR,0.01,VWS V14.01,2013-01-11 00:10:00,
2013-01-10 18:13:00,56.5,43.7,29.98,South,189,0.0,0.0,62,0.00,,CLR,0.01,VWS V14.01,2013-01-11 00:13:00,
2013-01-10 18:18:00,56.0,44.0,29.99,South,189,0.0,0.0,64,0.00,,CLR,0.01,VWS V14.01,2013-01-11 00:18:00,
2013-01-10 18:20:00,57.1,43.8,29.98,South,189,0.0,0.0,61,0.00,,CLR,0.01,VWS V14.01,2013-01-11 00:20:00,
2013-01-10 18:23:00,55.4,43.8,29.99,South,189,0.0,0.0,65,0.00,,CLR,0.01,VWS V14.01,2013-01-11 00:23:00,
2013-01-10 18:28:00,55.1,44.0,29.99,South,189,0.0,0.0,66,0.00,,CLR,0.01,VWS V14.01,2013-01-11 00:28:00,
2013-01-10 18:30:00,56.0,44.0,29.99,South,189,0.0,0.0,64,0.00,,CLR,0.01,VWS V14.01,2013-01-11 00:30:00,
2013-01-10 18:33:00,54.5,43.8,30.00,South,189,0.0,0.0,67,0.00,,CLR,0.01,VWS V14.01,2013-01-11 00:33:00,
2013-01-10 18:38:00,54.2,43.9,30.00,South,189,0.0,0.0,68,0.00,,CLR,0.01,VWS V14.01,2013-01-11 00:38:00,
2013-01-10 18:40:00,54.9,43.8,29.99,South,189,0.0,0.0,66,0.00,,CLR,0.01,VWS V14.01,2013-01-11 00:40:00,
2013-01-10 18:43:00,53.9,43.6,30.00,South,189,0.0,0.0,68,0.00,,CLR,0.01,VWS V14.01,2013-01-11 00:43:00,
2013-01-10 18:48:00,53.6,43.7,30.00,South,189,0.0,0.0,69,0.00,,CLR,0.01,VWS V14.01,2013-01-11 00:48:00,
2013-01-10 18:50:00,54.2,43.9,30.00,South,189,0.0,0.0,68,0.00,,CLR,0.01,VWS V14.01,2013-01-11 00:50:00,
2013-01-10 18:53:00,53.3,44.5,30.00,South,189,0.0,0.0,72,0.00,,CLR,0.01,VWS V14.01,2013-01-11 00:53:00,
2013-01-10 18:58:00,53.1,44.3,30.00,South,189,0.0,0.0,72,0.00,,CLR,0.01,VWS V14.01,2013-01-11 00:58:00,
2013-01-10 19:00:00,53.6,43.7,30.00,South,189,0.0,0.0,69,0.00,,CLR,0.01,VWS V14.01,2013-01-11 01:00:00,
2013-01-10 19:03:00,52.7,44.3,30.00,South,189,0.0,0.0,73,0.00,,CLR,0.01,VWS V14.01,2013-01-11 01:03:00,
2013-01-10 19:08:00,52.6,44.9,30.00,South,189,0.0,0.0,75,0.00,,CLR,0.01,VWS V14.01,2013-01-11 01:08:00,
2013-01-10 19:10:00,53.1,44.3,30.00,South,189,0.0,0.0,72,0.00,,CLR,0.01,VWS V14.01,2013-01-11 01:10:00,
2013-01-10 19:13:00,52.3,45.0,30.00,South,189,0.0,0.0,76,0.00,,CLR,0.01,VWS V14.01,2013-01-11 01:13:00,
2013-01-10 19:18:00,52.0,45.0,30.01,South,189,0.0,0.0,77,0.00,,CLR,0.01,VWS V14.01,2013-01-11 01:18:00,
2013-01-10 19:20:00,52.6,44.9,30.00,South,189,0.0,0.0,75,0.00,,CLR,0.01,VWS V14.01,2013-01-11 01:20:00,
2013-01-10 19:23:00,51.7,44.7,30.01,South,189,0.0,0.0,77,0.00,,CLR,0.01,VWS V14.01,2013-01-11 01:23:00,
2013-01-10 19:28:00,51.4,44.4,30.01,South,189,0.0,0.0,77,0.00,,CLR,0.01,VWS V14.01,2013-01-11 01:28:00,
2013-01-10 19:30:00,52.0,45.0,30.01,South,189,0.0,0.0,77,0.00,,CLR,0.01,VWS V14.01,2013-01-11 01:30:00,
2013-01-10 19:33:00,50.9,44.0,30.01,South,189,0.0,0.0,77,0.00,,CLR,0.01,VWS V14.01,2013-01-11 01:33:00,
2013-01-10 19:38:00,50.6,43.7,30.01,South,189,0.0,0.0,77,0.00,,CLR,0.01,VWS V14.01,2013-01-11 01:38:00,
2013-01-10 19:40:00,51.4,44.4,30.01,South,189,0.0,0.0,77,0.00,,CLR,0.01,VWS V14.01,2013-01-11 01:40:00,
2013-01-10 19:43:00,50.3,43.7,30.01,South,189,0.0,0.0,78,0.00,,CLR,0.01,VWS V14.01,2013-01-11 01:43:00,
2013-01-10 19:48:00,50.2,43.6,30.00,South,189,0.0,0.0,78,0.00,,CLR,0.01,VWS V14.01,2013-01-11 01:48:00,
2013-01-10 19:50:00,50.6,43.7,30.01,South,189,0.0,0.0,77,0.00,,CLR,0.01,VWS V14.01,2013-01-11 01:50:00,
2013-01-10 19:53:00,49.9,43.7,30.00,South,189,0.0,0.0,79,0.00,,CLR,0.01,VWS V14.01,2013-01-11 01:53:00,
2013-01-10 19:58:00,49.6,43.7,30.00,South,189,0.0,0.0,80,0.00,,CLR,0.01,VWS V14.01,2013-01-11 01:58:00,
2013-01-10 20:00:00,50.2,43.6,30.00,South,189,0.0,0.0,78,0.00,,CLR,0.01,VWS V14.01,2013-01-11 02:00:00,
2013-01-10 20:03:00,49.4,43.5,30.01,South,189,0.0,0.0,80,0.00,,CLR,0.01,VWS V14.01,2013-01-11 02:03:00,
2013-01-10 20:08:00,49.3,43.4,30.01,South,189,0.0,0.0,80,0.00,,CLR,0.01,VWS V14.01,2013-01-11 02:08:00,
2013-01-10 20:10:00,49.6,43.7,30.00,South,189,0.0,0.0,80,0.00,,CLR,0.01,VWS V14.01,2013-01-11 02:10:00,
2013-01-10 20:13:00,49.1,43.5,30.01,South,189,0.0,0.0,81,0.00,,CLR,0.01,VWS V14.01,2013-01-11 02:13:00,
2013-01-10 20:18:00,49.0,43.4,30.01,South,189,0.0,0.0,81,0.00,,CLR,0.01,VWS V14.01,2013-01-11 02:18:00,
2013-01-10 20:20:00,49.3,43.4,30.01,South,189,0.0,0.0,80,0.00,,CLR,0.01,VWS V14.01,2013-01-11 02:20:00,
2013-01-10 20:23:00,48.9,43.3,30.01,South,189,0.0,0.0,81,0.00,,CLR,0.01,VWS V14.01,2013-01-11 02:23:00,
2013-01-10 20:28:00,48.6,43.0,30.01,South,189,0.0,0.0,81,0.00,,CLR,0.01,VWS V14.01,2013-01-11 02:28:00,
2013-01-10 20:30:00,49.0,43.4,30.01,South,189,0.0,0.0,81,0.00,,CLR,0.01,VWS V14.01,2013-01-11 02:30:00,
2013-01-10 20:33:00,48.4,42.8,30.01,South,189,0.0,0.0,81,0.00,,CLR,0.01,VWS V14.01,2013-01-11 02:33:00,
2013-01-10 20:38:00,48.3,42.8,30.01,South,189,0.0,0.0,81,0.00,,CLR,0.01,VWS V14.01,2013-01-11 02:38:00,
2013-01-10 20:40:00,48.6,43.0,30.01,South,189,0.0,0.0,81,0.00,,CLR,0.01,VWS V14.01,2013-01-11 02:40:00,
2013-01-10 20:43:00,48.1,42.9,30.01,South,189,0.0,0.0,82,0.00,,CLR,0.01,VWS V14.01,2013-01-11 02:43:00,
2013-01-10 20:48:00,48.0,42.8,30.01,South,189,0.0,0.0,82,0.00,,CLR,0.01,VWS V14.01,2013-01-11 02:48:00,
2013-01-10 20:50:00,48.3,42.8,30.01,South,189,0.0,0.0,81,0.00,,CLR,0.01,VWS V14.01,2013-01-11 02:50:00,
2013-01-10 20:53:00,47.8,42.6,30.01,South,189,0.0,0.0,82,0.00,,CLR,0.01,VWS V14.01,2013-01-11 02:53:00,
2013-01-10 20:58:00,47.7,42.8,30.01,South,189,0.0,0.0,83,0.00,,CLR,0.01,VWS V14.01,2013-01-11 02:58:00,
2013-01-10 21:00:00,48.0,42.8,30.01,South,189,0.0,0.0,82,0.00,,CLR,0.01,VWS V14.01,2013-01-11 03:00:00,
2013-01-10 21:03:00,47.4,42.5,30.01,South,189,0.0,0.0,83,0.00,,CLR,0.01,VWS V14.01,2013-01-11 03:03:00,
2013-01-10 21:08:00,47.2,42.3,30.01,South,189,0.0,0.0,83,0.00,,CLR,0.01,VWS V14.01,2013-01-11 03:08:00,
2013-01-10 21:10:00,47.7,42.8,30.01,South,189,0.0,0.0,83,0.00,,CLR,0.01,VWS V14.01,2013-01-11 03:10:00,
2013-01-10 21:14:00,47.1,42.2,30.01,South,189,0.0,0.0,83,0.00,,CLR,0.01,VWS V14.01,2013-01-11 03:14:00,
2013-01-10 21:19:00,46.8,42.2,30.00,South,189,0.0,0.0,84,0.00,,CLR,0.01,VWS V14.01,2013-01-11 03:19:00,
2013-01-10 21:20:00,47.2,42.3,30.01,South,189,0.0,0.0,83,0.00,,CLR,0.01,VWS V14.01,2013-01-11 03:20:00,
2013-01-10 21:24:00,46.8,42.2,30.00,South,189,0.0,0.0,84,0.00,,CLR,0.01,VWS V14.01,2013-01-11 03:24:00,
2013-01-10 21:29:00,46.6,42.0,30.00,South,189,0.0,0.0,84,0.00,,CLR,0.01,VWS V14.01,2013-01-11 03:29:00,
2013-01-10 21:30:00,46.9,42.3,30.00,South,189,0.0,0.0,84,0.00,,CLR,0.01,VWS V14.01,2013-01-11 03:30:00,
2013-01-10 21:34:00,46.5,41.9,30.01,South,189,0.0,0.0,84,0.00,,CLR,0.01,VWS V14.01,2013-01-11 03:34:00,
2013-01-10 21:39:00,46.2,41.6,30.01,South,189,0.0,0.0,84,0.00,,CLR,0.01,VWS V14.01,2013-01-11 03:39:00,
2013-01-10 21:40:00,46.6,42.0,30.00,South,189,0.0,0.0,84,0.00,,CLR,0.01,VWS V14.01,2013-01-11 03:40:00,
2013-01-10 21:44:00,45.9,41.3,30.01,South,189,0.0,0.0,84,0.00,,CLR,0.01,VWS V14.01,2013-01-11 03:44:00,
2013-01-10 21:49:00,45.7,41.5,30.01,South,189,0.0,0.0,85,0.00,,CLR,0.01,VWS V14.01,2013-01-11 03:49:00,
2013-01-10 21:50:00,46.2,41.6,30.01,South,189,0.0,0.0,84,0.00,,CLR,0.01,VWS V14.01,2013-01-11 03:50:00,
2013-01-10 21:54:00,45.7,41.5,30.01,South,189,0.0,0.0,85,0.00,,CLR,0.01,VWS V14.01,2013-01-11 03:54:00,
2013-01-10 21:59:00,45.6,41.7,30.01,South,189,0.0,0.0,86,0.00,,CLR,0.01,VWS V14.01,2013-01-11 03:59:00,
2013-01-10 22:00:00,45.7,41.5,30.01,South,189,0.0,0.0,85,0.00,,CLR,0.01,VWS V14.01,2013-01-11 04:00:00,
2013-01-10 22:04:00,45.5,41.6,30.01,South,189,0.0,0.0,86,0.00,,CLR,0.01,VWS V14.01,2013-01-11 04:04:00,
2013-01-10 22:09:00,45.6,42.0,30.01,South,189,0.0,0.0,87,0.00,,CLR,0.01,VWS V14.01,2013-01-11 04:09:00,
2013-01-10 22:10:00,45.6,41.7,30.01,South,189,0.0,0.0,86,0.00,,CLR,0.01,VWS V14.01,2013-01-11 04:10:00,
2013-01-10 22:14:00,45.7,42.4,30.01,South,189,0.0,0.0,88,0.00,,CLR,0.01,VWS V14.01,2013-01-11 04:14:00,
2013-01-10 22:19:00,45.7,42.1,30.01,South,189,0.0,0.0,87,0.00,,CLR,0.01,VWS V14.01,2013-01-11 04:19:00,
2013-01-10 22:20:00,45.6,42.0,30.01,South,189,0.0,0.0,87,0.00,,CLR,0.01,VWS V14.01,2013-01-11 04:20:00,
2013-01-10 22:24:00,45.7,42.1,30.01,South,189,0.0,0.0,87,0.00,,CLR,0.01,VWS V14.01,2013-01-11 04:24:00,
2013-01-10 22:29:00,45.5,41.9,30.01,South,189,0.0,0.0,87,0.00,,CLR,0.01,VWS V14.01,2013-01-11 04:29:00,
2013-01-10 22:30:00,45.7,42.1,30.01,South,189,0.0,0.0,87,0.00,,CLR,0.01,VWS V14.01,2013-01-11 04:30:00,
2013-01-10 22:34:00,45.2,41.6,30.01,South,189,0.0,0.0,87,0.00,,CLR,0.01,VWS V14.01,2013-01-11 04:34:00,
2013-01-10 22:39:00,45.0,41.7,30.01,South,189,0.0,0.0,88,0.00,,CLR,0.01,VWS V14.01,2013-01-11 04:39:00,
2013-01-10 22:40:00,45.5,41.9,30.01,South,189,0.0,0.0,87,0.00,,CLR,0.01,VWS V14.01,2013-01-11 04:40:00,
2013-01-10 22:44:00,44.9,41.6,30.01,South,189,0.0,0.0,88,0.00,,CLR,0.01,VWS V14.01,2013-01-11 04:44:00,
2013-01-10 22:49:00,44.6,41.3,30.01,South,189,0.0,0.0,88,0.00,,CLR,0.01,VWS V14.01,2013-01-11 04:49:00,
2013-01-10 22:50:00,45.0,41.7,30.01,South,189,0.0,0.0,88,0.00,,CLR,0.01,VWS V14.01,2013-01-11 04:50:00,
2013-01-10 22:54:00,44.4,41.1,30.01,South,189,0.0,0.0,88,0.00,,CLR,0.01,VWS V14.01,2013-01-11 04:54:00,
2013-01-10 23:00:00,44.7,41.4,30.01,South,189,0.0,0.0,88,0.00,,CLR,0.01,VWS V14.01,2013-01-11 05:00:00,
2013-01-10 23:01:00,44.1,40.8,30.01,South,189,0.0,0.0,88,0.00,,CLR,0.01,VWS V14.01,2013-01-11 05:01:00,
2013-01-10 23:03:00,44.1,40.8,30.01,South,189,0.0,0.0,88,0.00,,CLR,0.01,VWS V14.01,2013-01-11 05:03:00,
2013-01-10 23:08:00,43.8,40.5,30.01,South,189,0.0,0.0,88,0.00,,CLR,0.01,VWS V14.01,2013-01-11 05:08:00,
2013-01-10 23:10:00,44.3,41.0,30.01,South,189,0.0,0.0,88,0.00,,CLR,0.01,VWS V14.01,2013-01-11 05:10:00,
2013-01-10 23:13:00,43.7,40.4,30.01,South,189,0.0,0.0,88,0.00,,CLR,0.01,VWS V14.01,2013-01-11 05:13:00,
2013-01-10 23:18:00,43.6,40.3,30.01,South,189,0.0,0.0,88,0.00,,CLR,0.01,VWS V14.01,2013-01-11 05:18:00,
2013-01-10 23:20:00,43.8,40.5,30.01,South,189,0.0,0.0,88,0.00,,CLR,0.01,VWS V14.01,2013-01-11 05:20:00,
2013-01-10 23:23:00,43.4,40.1,30.01,South,189,0.0,0.0,88,0.00,,CLR,0.01,VWS V14.01,2013-01-11 05:23:00,
2013-01-10 23:28:00,43.4,40.4,30.01,South,189,0.0,0.0,89,0.00,,CLR,0.01,VWS V14.01,2013-01-11 05:28:00,
2013-01-10 23:30:00,43.6,40.3,30.01,South,189,0.0,0.0,88,0.00,,CLR,0.01,VWS V14.01,2013-01-11 05:30:00,
2013-01-10 23:33:00,43.1,40.1,30.01,South,189,0.0,0.0,89,0.00,,CLR,0.01,VWS V14.01,2013-01-11 05:33:00,
2013-01-10 23:38:00,43.0,40.0,30.01,South,189,0.0,0.0,89,0.00,,CLR,0.01,VWS V14.01,2013-01-11 05:38:00,
2013-01-10 23:40:00,43.4,40.4,30.01,South,189,0.0,0.0,89,0.00,,CLR,0.01,VWS V14.01,2013-01-11 05:40:00,
2013-01-10 23:43:00,42.8,39.8,30.01,South,189,0.0,0.0,89,0.00,,CLR,0.01,VWS V14.01,2013-01-11 05:43:00,
2013-01-10 23:48:00,42.8,40.1,30.02,South,189,0.0,0.0,90,0.00,,CLR,0.01,VWS V14.01,2013-01-11 05:48:00,
2013-01-10 23:50:00,43.0,40.0,30.01,South,189,0.0,0.0,89,0.00,,CLR,0.01,VWS V14.01,2013-01-11 05:50:00,
2013-01-10 23:53:00,42.8,40.1,30.02,South,189,0.0,0.0,90,0.00,,CLR,0.00,VWS V14.01,2013-01-11 05:53:00,
2013-01-10 23:58:00,42.8,40.1,30.02,South,189,0.0,0.0,90,0.00,,CLR,0.00,VWS V14.01,2013-01-11 05:58:00,